sensor_id;sensor_type;location;lat;lon;timestamp;temperature;humidity
61092;DHT22;46975;51.898;11.444;2022-12-10T00:01:34;0.20;99.90
61092;DHT22;46975;51.898;11.444;2022-12-10T00:04:00;0.30;99.90
61092;DHT22;46975;51.898;11.444;2022-12-10T00:06:28;0.40;99.90
61092;DHT22;46975;51.898;11.444;2022-12-10T00:08:54;0.40;99.90
61092;DHT22;46975;51.898;11.444;2022-12-10T00:11:21;0.30;99.90
61092;DHT22;46975;51.898;11.444;2022-12-10T00:13:48;0.30;99.90
61092;DHT22;46975;51.898;11.444;2022-12-10T00:16:16;0.30;99.90
61092;DHT22;46975;51.898;11.444;2022-12-10T00:18:42;0.30;99.90
61092;DHT22;46975;51.898;11.444;2022-12-10T00:21:11;0.20;99.90
61092;DHT22;46975;51.898;11.444;2022-12-10T00:23:38;0.20;99.90
61092;DHT22;46975;51.898;11.444;2022-12-10T00:26:05;0.20;99.90
61092;DHT22;46975;51.898;11.444;2022-12-10T00:28:31;0.20;99.90
61092;DHT22;46975;51.898;11.444;2022-12-10T00:31:05;0.30;99.90
61092;DHT22;46975;51.898;11.444;2022-12-10T00:33:31;0.30;99.90
61092;DHT22;46975;51.898;11.444;2022-12-10T00:36:02;0.30;99.90
61092;DHT22;46975;51.898;11.444;2022-12-10T00:38:28;0.10;99.90
61092;DHT22;46975;51.898;11.444;2022-12-10T00:40:54;0.10;99.90
61092;DHT22;46975;51.898;11.444;2022-12-10T00:43:20;0.20;99.90
61092;DHT22;46975;51.898;11.444;2022-12-10T00:45:46;0.20;99.90
61092;DHT22;46975;51.898;11.444;2022-12-10T00:48:11;0.20;99.90
61092;DHT22;46975;51.898;11.444;2022-12-10T00:50:37;0.30;99.90
61092;DHT22;46975;51.898;11.444;2022-12-10T00:53:02;0.30;99.90
61092;DHT22;46975;51.898;11.444;2022-12-10T00:55:28;0.20;99.90
61092;DHT22;46975;51.898;11.444;2022-12-10T00:57:54;0.10;99.90
61092;DHT22;46975;51.898;11.444;2022-12-10T01:00:19;0.10;99.90
61092;DHT22;46975;51.898;11.444;2022-12-10T01:02:45;0.00;99.90
61092;DHT22;46975;51.898;11.444;2022-12-10T01:05:10;0.00;99.90
61092;DHT22;46975;51.898;11.444;2022-12-10T01:07:36;0.10;99.90
61092;DHT22;46975;51.898;11.444;2022-12-10T01:10:03;0.00;99.90
61092;DHT22;46975;51.898;11.444;2022-12-10T01:12:29;0.00;99.90
61092;DHT22;46975;51.898;11.444;2022-12-10T01:14:54;-0.10;99.90
61092;DHT22;46975;51.898;11.444;2022-12-10T01:17:20;-0.10;99.90
61092;DHT22;46975;51.898;11.444;2022-12-10T01:19:46;0.00;99.90
61092;DHT22;46975;51.898;11.444;2022-12-10T01:22:12;0.00;99.90
61092;DHT22;46975;51.898;11.444;2022-12-10T01:24:38;0.00;99.90
61092;DHT22;46975;51.898;11.444;2022-12-10T01:27:04;-0.10;99.90
61092;DHT22;46975;51.898;11.444;2022-12-10T01:29:30;-0.10;99.90
61092;DHT22;46975;51.898;11.444;2022-12-10T01:31:56;-0.10;99.90
61092;DHT22;46975;51.898;11.444;2022-12-10T01:34:23;-0.10;99.90
61092;DHT22;46975;51.898;11.444;2022-12-10T01:36:52;-0.10;99.90
61092;DHT22;46975;51.898;11.444;2022-12-10T01:39:20;0.00;99.90
61092;DHT22;46975;51.898;11.444;2022-12-10T01:41:51;0.10;99.90
61092;DHT22;46975;51.898;11.444;2022-12-10T01:46:45;0.20;99.90
61092;DHT22;46975;51.898;11.444;2022-12-10T01:49:34;0.20;99.90
61092;DHT22;46975;51.898;11.444;2022-12-10T01:52:00;0.20;99.90
61092;DHT22;46975;51.898;11.444;2022-12-10T01:54:30;0.10;99.90
61092;DHT22;46975;51.898;11.444;2022-12-10T01:59:34;0.10;99.90
61092;DHT22;46975;51.898;11.444;2022-12-10T02:13:13;0.10;99.90
61092;DHT22;46975;51.898;11.444;2022-12-10T02:15:51;0.10;99.90
61092;DHT22;46975;51.898;11.444;2022-12-10T02:18:27;0.00;99.90
61092;DHT22;46975;51.898;11.444;2022-12-10T02:21:02;0.00;99.90
61092;DHT22;46975;51.898;11.444;2022-12-10T02:23:35;0.10;99.90
61092;DHT22;46975;51.898;11.444;2022-12-10T02:26:13;0.00;99.90
61092;DHT22;46975;51.898;11.444;2022-12-10T02:29:01;0.00;99.90
61092;DHT22;46975;51.898;11.444;2022-12-10T02:31:31;-0.10;99.90
61092;DHT22;46975;51.898;11.444;2022-12-10T02:34:00;-0.10;99.90
61092;DHT22;46975;51.898;11.444;2022-12-10T02:36:28;-0.10;99.90
61092;DHT22;46975;51.898;11.444;2022-12-10T02:38:56;-0.10;99.90
61092;DHT22;46975;51.898;11.444;2022-12-10T02:42:00;0.00;99.90
61092;DHT22;46975;51.898;11.444;2022-12-10T02:44:20;0.00;99.90
61092;DHT22;46975;51.898;11.444;2022-12-10T02:46:48;0.00;99.90
61092;DHT22;46975;51.898;11.444;2022-12-10T02:49:16;0.00;99.90
61092;DHT22;46975;51.898;11.444;2022-12-10T02:51:42;0.00;99.90
61092;DHT22;46975;51.898;11.444;2022-12-10T02:54:33;-0.10;99.90
61092;DHT22;46975;51.898;11.444;2022-12-10T02:57:14;-0.10;99.90
61092;DHT22;46975;51.898;11.444;2022-12-10T02:59:47;-0.10;99.90
61092;DHT22;46975;51.898;11.444;2022-12-10T03:02:21;-0.20;99.90
61092;DHT22;46975;51.898;11.444;2022-12-10T03:05:04;-0.10;99.90
61092;DHT22;46975;51.898;11.444;2022-12-10T03:07:50;-0.10;99.90
61092;DHT22;46975;51.898;11.444;2022-12-10T03:10:38;0.00;99.90
61092;DHT22;46975;51.898;11.444;2022-12-10T03:13:08;-0.10;99.90
61092;DHT22;46975;51.898;11.444;2022-12-10T03:15:39;-0.10;99.90
61092;DHT22;46975;51.898;11.444;2022-12-10T03:18:07;-0.20;99.90
61092;DHT22;46975;51.898;11.444;2022-12-10T03:20:38;-0.10;99.90
61092;DHT22;46975;51.898;11.444;2022-12-10T03:23:07;-0.10;99.90
61092;DHT22;46975;51.898;11.444;2022-12-10T03:25:34;-0.10;99.90
61092;DHT22;46975;51.898;11.444;2022-12-10T03:28:00;-0.10;99.90
61092;DHT22;46975;51.898;11.444;2022-12-10T03:30:26;-0.10;99.90
61092;DHT22;46975;51.898;11.444;2022-12-10T03:32:53;-0.10;99.90
61092;DHT22;46975;51.898;11.444;2022-12-10T03:35:20;-0.10;99.90
61092;DHT22;46975;51.898;11.444;2022-12-10T03:37:47;-0.20;99.90
61092;DHT22;46975;51.898;11.444;2022-12-10T03:40:16;-0.10;99.90
61092;DHT22;46975;51.898;11.444;2022-12-10T03:42:43;-0.20;99.90
61092;DHT22;46975;51.898;11.444;2022-12-10T03:45:10;-0.20;99.90
61092;DHT22;46975;51.898;11.444;2022-12-10T03:47:35;-0.20;99.90
61092;DHT22;46975;51.898;11.444;2022-12-10T03:50:02;-0.20;99.90
61092;DHT22;46975;51.898;11.444;2022-12-10T03:52:27;-0.20;99.90
61092;DHT22;46975;51.898;11.444;2022-12-10T03:54:53;-0.20;99.90
61092;DHT22;46975;51.898;11.444;2022-12-10T03:57:19;-0.20;99.90
61092;DHT22;46975;51.898;11.444;2022-12-10T03:59:44;-0.20;99.90
61092;DHT22;46975;51.898;11.444;2022-12-10T04:02:10;-0.20;99.90
61092;DHT22;46975;51.898;11.444;2022-12-10T04:04:36;-0.20;99.90
61092;DHT22;46975;51.898;11.444;2022-12-10T04:07:01;-0.20;99.90
61092;DHT22;46975;51.898;11.444;2022-12-10T04:09:27;-0.20;99.90
61092;DHT22;46975;51.898;11.444;2022-12-10T04:11:57;-0.30;99.90
61092;DHT22;46975;51.898;11.444;2022-12-10T04:14:24;-0.30;99.90
61092;DHT22;46975;51.898;11.444;2022-12-10T04:17:08;-0.20;99.90
61092;DHT22;46975;51.898;11.444;2022-12-10T04:19:34;-0.20;99.90
61092;DHT22;46975;51.898;11.444;2022-12-10T04:21:59;-0.20;99.90
61092;DHT22;46975;51.898;11.444;2022-12-10T04:24:43;-0.20;99.90
61092;DHT22;46975;51.898;11.444;2022-12-10T04:27:35;-0.10;99.90
61092;DHT22;46975;51.898;11.444;2022-12-10T04:30:02;-0.10;99.90
61092;DHT22;46975;51.898;11.444;2022-12-10T04:32:29;-0.10;99.90
61092;DHT22;46975;51.898;11.444;2022-12-10T04:34:55;-0.10;99.90
61092;DHT22;46975;51.898;11.444;2022-12-10T04:37:21;-0.10;99.90
61092;DHT22;46975;51.898;11.444;2022-12-10T04:39:47;-0.10;99.90
61092;DHT22;46975;51.898;11.444;2022-12-10T04:42:14;-0.10;99.90
61092;DHT22;46975;51.898;11.444;2022-12-10T04:44:39;-0.30;99.90
61092;DHT22;46975;51.898;11.444;2022-12-10T04:47:08;-0.30;99.90
61092;DHT22;46975;51.898;11.444;2022-12-10T04:49:34;-0.40;99.90
61092;DHT22;46975;51.898;11.444;2022-12-10T04:52:00;-0.30;99.90
61092;DHT22;46975;51.898;11.444;2022-12-10T04:54:25;-0.30;99.90
61092;DHT22;46975;51.898;11.444;2022-12-10T04:56:51;-0.30;99.90
61092;DHT22;46975;51.898;11.444;2022-12-10T04:59:17;-0.20;99.90
61092;DHT22;46975;51.898;11.444;2022-12-10T05:01:43;-0.20;99.90
61092;DHT22;46975;51.898;11.444;2022-12-10T05:04:12;-0.20;99.90
61092;DHT22;46975;51.898;11.444;2022-12-10T05:06:38;-0.20;99.90
61092;DHT22;46975;51.898;11.444;2022-12-10T05:09:05;-0.20;99.90
61092;DHT22;46975;51.898;11.444;2022-12-10T05:11:31;-0.20;99.90
61092;DHT22;46975;51.898;11.444;2022-12-10T05:13:58;-0.20;99.90
61092;DHT22;46975;51.898;11.444;2022-12-10T05:16:26;-0.20;99.90
61092;DHT22;46975;51.898;11.444;2022-12-10T05:18:53;-0.10;99.90
61092;DHT22;46975;51.898;11.444;2022-12-10T05:21:20;-0.10;99.90
61092;DHT22;46975;51.898;11.444;2022-12-10T05:23:48;-0.10;99.90
61092;DHT22;46975;51.898;11.444;2022-12-10T05:26:21;-0.10;99.90
61092;DHT22;46975;51.898;11.444;2022-12-10T05:28:53;-0.10;99.90
61092;DHT22;46975;51.898;11.444;2022-12-10T05:31:28;-0.10;99.90
61092;DHT22;46975;51.898;11.444;2022-12-10T05:33:55;-0.10;99.90
61092;DHT22;46975;51.898;11.444;2022-12-10T05:36:23;-0.10;99.90
61092;DHT22;46975;51.898;11.444;2022-12-10T05:38:50;-0.10;99.90
61092;DHT22;46975;51.898;11.444;2022-12-10T05:41:18;-0.10;99.90
61092;DHT22;46975;51.898;11.444;2022-12-10T05:43:45;-0.20;99.90
61092;DHT22;46975;51.898;11.444;2022-12-10T05:46:13;-0.20;99.90
61092;DHT22;46975;51.898;11.444;2022-12-10T05:48:39;-0.20;99.90
61092;DHT22;46975;51.898;11.444;2022-12-10T05:51:07;-0.20;99.90
61092;DHT22;46975;51.898;11.444;2022-12-10T05:53:33;-0.20;99.90
61092;DHT22;46975;51.898;11.444;2022-12-10T05:56:03;-0.20;99.90
61092;DHT22;46975;51.898;11.444;2022-12-10T05:58:30;-0.30;99.90
61092;DHT22;46975;51.898;11.444;2022-12-10T06:00:56;-0.30;99.90
61092;DHT22;46975;51.898;11.444;2022-12-10T06:03:22;-0.30;99.90
61092;DHT22;46975;51.898;11.444;2022-12-10T06:05:48;-0.20;99.90
61092;DHT22;46975;51.898;11.444;2022-12-10T06:08:14;-0.20;99.90
61092;DHT22;46975;51.898;11.444;2022-12-10T06:10:39;-0.20;99.90
61092;DHT22;46975;51.898;11.444;2022-12-10T06:13:05;-0.20;99.90
61092;DHT22;46975;51.898;11.444;2022-12-10T06:15:32;-0.20;99.90
61092;DHT22;46975;51.898;11.444;2022-12-10T06:17:58;-0.20;99.90
61092;DHT22;46975;51.898;11.444;2022-12-10T06:20:25;-0.10;99.90
61092;DHT22;46975;51.898;11.444;2022-12-10T06:22:51;-0.10;99.90
61092;DHT22;46975;51.898;11.444;2022-12-10T06:25:17;-0.20;99.90
61092;DHT22;46975;51.898;11.444;2022-12-10T06:27:43;-0.20;99.90
61092;DHT22;46975;51.898;11.444;2022-12-10T06:30:09;-0.10;99.90
61092;DHT22;46975;51.898;11.444;2022-12-10T06:32:35;-0.20;99.90
61092;DHT22;46975;51.898;11.444;2022-12-10T06:35:01;-0.20;99.90
61092;DHT22;46975;51.898;11.444;2022-12-10T06:37:27;-0.20;99.90
61092;DHT22;46975;51.898;11.444;2022-12-10T06:39:53;-0.20;99.90
61092;DHT22;46975;51.898;11.444;2022-12-10T06:42:19;-0.10;99.90
61092;DHT22;46975;51.898;11.444;2022-12-10T06:44:45;-0.10;99.90
61092;DHT22;46975;51.898;11.444;2022-12-10T06:47:11;-0.10;99.90
61092;DHT22;46975;51.898;11.444;2022-12-10T06:49:37;-0.10;99.90
61092;DHT22;46975;51.898;11.444;2022-12-10T06:52:03;0.00;99.90
61092;DHT22;46975;51.898;11.444;2022-12-10T06:54:29;-0.10;99.90
61092;DHT22;46975;51.898;11.444;2022-12-10T06:56:55;-0.10;99.90
61092;DHT22;46975;51.898;11.444;2022-12-10T06:59:21;-0.10;99.90
61092;DHT22;46975;51.898;11.444;2022-12-10T07:01:47;-0.10;99.90
61092;DHT22;46975;51.898;11.444;2022-12-10T07:04:13;0.00;99.90
61092;DHT22;46975;51.898;11.444;2022-12-10T07:06:39;-0.10;99.90
61092;DHT22;46975;51.898;11.444;2022-12-10T07:09:05;-0.10;99.90
61092;DHT22;46975;51.898;11.444;2022-12-10T07:11:31;-0.20;99.90
61092;DHT22;46975;51.898;11.444;2022-12-10T07:13:58;-0.20;99.90
61092;DHT22;46975;51.898;11.444;2022-12-10T07:16:26;-0.10;99.90
61092;DHT22;46975;51.898;11.444;2022-12-10T07:18:54;-0.10;99.90
61092;DHT22;46975;51.898;11.444;2022-12-10T07:23:48;0.00;99.90
61092;DHT22;46975;51.898;11.444;2022-12-10T07:26:14;0.00;99.90
61092;DHT22;46975;51.898;11.444;2022-12-10T07:28:40;0.00;99.90
61092;DHT22;46975;51.898;11.444;2022-12-10T07:31:07;0.10;99.90
61092;DHT22;46975;51.898;11.444;2022-12-10T07:33:34;0.10;99.90
61092;DHT22;46975;51.898;11.444;2022-12-10T07:36:04;0.10;99.90
61092;DHT22;46975;51.898;11.444;2022-12-10T07:38:30;0.10;99.90
61092;DHT22;46975;51.898;11.444;2022-12-10T07:40:56;0.10;99.90
61092;DHT22;46975;51.898;11.444;2022-12-10T07:43:21;0.00;99.90
61092;DHT22;46975;51.898;11.444;2022-12-10T07:45:47;0.10;99.90
61092;DHT22;46975;51.898;11.444;2022-12-10T07:48:13;0.10;99.90
61092;DHT22;46975;51.898;11.444;2022-12-10T07:50:39;0.00;99.90
61092;DHT22;46975;51.898;11.444;2022-12-10T07:53:05;0.00;99.90
61092;DHT22;46975;51.898;11.444;2022-12-10T07:55:31;0.00;99.90
61092;DHT22;46975;51.898;11.444;2022-12-10T07:57:57;-0.10;99.90
61092;DHT22;46975;51.898;11.444;2022-12-10T08:00:23;0.00;99.90
61092;DHT22;46975;51.898;11.444;2022-12-10T08:02:49;0.00;99.90
61092;DHT22;46975;51.898;11.444;2022-12-10T08:05:14;0.00;99.90
61092;DHT22;46975;51.898;11.444;2022-12-10T08:07:40;0.10;99.90
61092;DHT22;46975;51.898;11.444;2022-12-10T08:10:06;0.10;99.90
61092;DHT22;46975;51.898;11.444;2022-12-10T08:12:32;0.10;99.90
61092;DHT22;46975;51.898;11.444;2022-12-10T08:14:58;0.20;99.90
61092;DHT22;46975;51.898;11.444;2022-12-10T08:17:23;0.20;99.90
61092;DHT22;46975;51.898;11.444;2022-12-10T08:19:49;0.20;99.90
61092;DHT22;46975;51.898;11.444;2022-12-10T08:22:16;0.20;99.90
61092;DHT22;46975;51.898;11.444;2022-12-10T08:24:42;0.20;99.90
61092;DHT22;46975;51.898;11.444;2022-12-10T08:27:07;0.20;99.90
61092;DHT22;46975;51.898;11.444;2022-12-10T08:29:33;0.30;99.90
61092;DHT22;46975;51.898;11.444;2022-12-10T08:31:59;0.30;99.90
61092;DHT22;46975;51.898;11.444;2022-12-10T08:34:24;0.40;99.90
61092;DHT22;46975;51.898;11.444;2022-12-10T08:36:50;0.30;99.90
61092;DHT22;46975;51.898;11.444;2022-12-10T08:39:16;0.20;99.90
61092;DHT22;46975;51.898;11.444;2022-12-10T08:41:43;0.20;99.90
61092;DHT22;46975;51.898;11.444;2022-12-10T08:44:10;0.20;99.90
61092;DHT22;46975;51.898;11.444;2022-12-10T08:46:36;0.30;99.90
61092;DHT22;46975;51.898;11.444;2022-12-10T08:49:02;0.30;99.90
61092;DHT22;46975;51.898;11.444;2022-12-10T08:51:28;0.30;99.90
61092;DHT22;46975;51.898;11.444;2022-12-10T08:53:55;0.20;99.90
61092;DHT22;46975;51.898;11.444;2022-12-10T08:56:20;0.20;99.90
61092;DHT22;46975;51.898;11.444;2022-12-10T08:58:46;0.00;99.90
61092;DHT22;46975;51.898;11.444;2022-12-10T09:01:15;0.10;99.90
61092;DHT22;46975;51.898;11.444;2022-12-10T09:03:40;0.10;99.90
61092;DHT22;46975;51.898;11.444;2022-12-10T09:06:09;0.10;99.90
61092;DHT22;46975;51.898;11.444;2022-12-10T09:08:35;0.10;99.90
61092;DHT22;46975;51.898;11.444;2022-12-10T09:11:11;0.00;99.90
61092;DHT22;46975;51.898;11.444;2022-12-10T09:13:36;0.10;99.90
61092;DHT22;46975;51.898;11.444;2022-12-10T09:16:02;0.00;99.90
61092;DHT22;46975;51.898;11.444;2022-12-10T09:18:28;0.00;99.90
61092;DHT22;46975;51.898;11.444;2022-12-10T09:20:54;0.10;99.90
61092;DHT22;46975;51.898;11.444;2022-12-10T09:23:20;0.00;99.90
61092;DHT22;46975;51.898;11.444;2022-12-10T09:25:45;-0.10;99.90
61092;DHT22;46975;51.898;11.444;2022-12-10T09:28:11;-0.10;99.90
61092;DHT22;46975;51.898;11.444;2022-12-10T09:30:36;-0.30;99.90
61092;DHT22;46975;51.898;11.444;2022-12-10T09:33:02;-0.20;99.90
61092;DHT22;46975;51.898;11.444;2022-12-10T09:35:28;0.00;99.90
61092;DHT22;46975;51.898;11.444;2022-12-10T09:37:54;0.00;99.90
61092;DHT22;46975;51.898;11.444;2022-12-10T09:40:39;-0.10;99.90
61092;DHT22;46975;51.898;11.444;2022-12-10T09:46:21;-0.10;99.90
61092;DHT22;46975;51.898;11.444;2022-12-10T09:49:17;0.00;99.90
61092;DHT22;46975;51.898;11.444;2022-12-10T09:51:46;0.00;99.90
61092;DHT22;46975;51.898;11.444;2022-12-10T09:54:33;0.10;99.90
61092;DHT22;46975;51.898;11.444;2022-12-10T09:57:00;0.10;99.90
61092;DHT22;46975;51.898;11.444;2022-12-10T09:59:31;0.20;99.90
61092;DHT22;46975;51.898;11.444;2022-12-10T10:02:34;0.20;99.90
61092;DHT22;46975;51.898;11.444;2022-12-10T10:07:43;0.30;99.90
61092;DHT22;46975;51.898;11.444;2022-12-10T10:10:34;0.20;99.90
61092;DHT22;46975;51.898;11.444;2022-12-10T10:15:38;0.30;99.90
61092;DHT22;46975;51.898;11.444;2022-12-10T10:18:35;0.30;99.90
61092;DHT22;46975;51.898;11.444;2022-12-10T10:21:05;0.30;99.90
61092;DHT22;46975;51.898;11.444;2022-12-10T10:23:32;0.30;99.90
61092;DHT22;46975;51.898;11.444;2022-12-10T10:25:59;0.30;99.90
61092;DHT22;46975;51.898;11.444;2022-12-10T10:28:25;0.20;99.90
61092;DHT22;46975;51.898;11.444;2022-12-10T10:30:52;0.20;99.90
61092;DHT22;46975;51.898;11.444;2022-12-10T10:33:19;0.20;99.90
61092;DHT22;46975;51.898;11.444;2022-12-10T10:35:56;0.10;99.90
61092;DHT22;46975;51.898;11.444;2022-12-10T10:38:28;0.20;99.90
61092;DHT22;46975;51.898;11.444;2022-12-10T10:40:59;0.30;99.90
61092;DHT22;46975;51.898;11.444;2022-12-10T10:43:46;0.30;99.90
61092;DHT22;46975;51.898;11.444;2022-12-10T10:46:15;0.40;99.90
61092;DHT22;46975;51.898;11.444;2022-12-10T10:48:42;0.30;99.90
61092;DHT22;46975;51.898;11.444;2022-12-10T10:51:17;0.30;99.90
61092;DHT22;46975;51.898;11.444;2022-12-10T10:53:53;0.30;99.90
61092;DHT22;46975;51.898;11.444;2022-12-10T10:56:28;0.30;99.90
61092;DHT22;46975;51.898;11.444;2022-12-10T11:01:54;0.40;99.90
61092;DHT22;46975;51.898;11.444;2022-12-10T11:04:27;0.40;99.90
61092;DHT22;46975;51.898;11.444;2022-12-10T11:06:55;0.50;99.90
61092;DHT22;46975;51.898;11.444;2022-12-10T11:09:26;0.50;99.90
61092;DHT22;46975;51.898;11.444;2022-12-10T11:11:59;0.50;99.90
61092;DHT22;46975;51.898;11.444;2022-12-10T11:14:49;0.40;99.90
61092;DHT22;46975;51.898;11.444;2022-12-10T11:22:30;0.40;99.90
61092;DHT22;46975;51.898;11.444;2022-12-10T11:24:58;0.40;99.90
61092;DHT22;46975;51.898;11.444;2022-12-10T11:27:38;0.30;99.90
61092;DHT22;46975;51.898;11.444;2022-12-10T11:30:20;0.20;99.90
61092;DHT22;46975;51.898;11.444;2022-12-10T11:38:38;0.30;99.90
61092;DHT22;46975;51.898;11.444;2022-12-10T11:44:35;0.30;99.90
61092;DHT22;46975;51.898;11.444;2022-12-10T11:47:28;0.20;99.90
61092;DHT22;46975;51.898;11.444;2022-12-10T12:01:13;0.30;99.90
61092;DHT22;46975;51.898;11.444;2022-12-10T12:03:53;0.30;99.90
61092;DHT22;46975;51.898;11.444;2022-12-10T12:09:27;0.40;99.90
61092;DHT22;46975;51.898;11.444;2022-12-10T12:12:18;0.20;99.90
61092;DHT22;46975;51.898;11.444;2022-12-10T12:14:51;0.20;99.90
61092;DHT22;46975;51.898;11.444;2022-12-10T12:17:27;0.10;99.90
61092;DHT22;46975;51.898;11.444;2022-12-10T12:19:59;0.10;99.90
61092;DHT22;46975;51.898;11.444;2022-12-10T12:22:29;0.10;99.90
61092;DHT22;46975;51.898;11.444;2022-12-10T12:25:01;0.10;99.90
61092;DHT22;46975;51.898;11.444;2022-12-10T12:30:28;-0.10;99.90
61092;DHT22;46975;51.898;11.444;2022-12-10T12:35:58;-0.10;99.90
61092;DHT22;46975;51.898;11.444;2022-12-10T12:41:24;0.00;99.90
61092;DHT22;46975;51.898;11.444;2022-12-10T12:44:00;0.00;99.90
61092;DHT22;46975;51.898;11.444;2022-12-10T12:52:33;0.00;99.90
61092;DHT22;46975;51.898;11.444;2022-12-10T12:54:36;0.00;99.90
61092;DHT22;46975;51.898;11.444;2022-12-10T13:05:20;-0.10;99.90
61092;DHT22;46975;51.898;11.444;2022-12-10T13:11:00;0.00;99.90
61092;DHT22;46975;51.898;11.444;2022-12-10T13:32:20;0.10;99.90
61092;DHT22;46975;51.898;11.444;2022-12-10T13:34:47;0.20;99.90
61092;DHT22;46975;51.898;11.444;2022-12-10T13:37:37;0.00;99.90
61092;DHT22;46975;51.898;11.444;2022-12-10T13:49:00;0.20;99.90
61092;DHT22;46975;51.898;11.444;2022-12-10T13:51:50;0.10;99.90
61092;DHT22;46975;51.898;11.444;2022-12-10T13:54:38;0.10;99.90
61092;DHT22;46975;51.898;11.444;2022-12-10T14:08:26;0.10;99.90
61092;DHT22;46975;51.898;11.444;2022-12-10T14:10:53;0.10;99.90
61092;DHT22;46975;51.898;11.444;2022-12-10T14:13:21;0.10;99.90
61092;DHT22;46975;51.898;11.444;2022-12-10T14:15:55;0.00;99.90
61092;DHT22;46975;51.898;11.444;2022-12-10T14:18:22;0.00;99.90
61092;DHT22;46975;51.898;11.444;2022-12-10T14:20:52;0.00;99.90
61092;DHT22;46975;51.898;11.444;2022-12-10T14:23:30;0.00;99.90
61092;DHT22;46975;51.898;11.444;2022-12-10T14:26:03;0.00;99.90
61092;DHT22;46975;51.898;11.444;2022-12-10T14:28:29;0.00;99.90
61092;DHT22;46975;51.898;11.444;2022-12-10T14:30:58;0.00;99.90
61092;DHT22;46975;51.898;11.444;2022-12-10T14:33:25;0.00;99.90
61092;DHT22;46975;51.898;11.444;2022-12-10T14:35:52;0.00;99.90
61092;DHT22;46975;51.898;11.444;2022-12-10T14:38:31;0.10;99.90
61092;DHT22;46975;51.898;11.444;2022-12-10T14:40:59;0.00;99.90
61092;DHT22;46975;51.898;11.444;2022-12-10T14:46:00;0.00;99.90
61092;DHT22;46975;51.898;11.444;2022-12-10T14:48:27;-0.10;99.90
61092;DHT22;46975;51.898;11.444;2022-12-10T14:50:53;0.00;99.90
61092;DHT22;46975;51.898;11.444;2022-12-10T14:53:26;-0.10;99.90
61092;DHT22;46975;51.898;11.444;2022-12-10T14:56:14;0.00;99.90
61092;DHT22;46975;51.898;11.444;2022-12-10T14:58:50;0.00;99.90
61092;DHT22;46975;51.898;11.444;2022-12-10T15:01:41;0.00;99.90
61092;DHT22;46975;51.898;11.444;2022-12-10T15:04:14;0.00;99.90
61092;DHT22;46975;51.898;11.444;2022-12-10T15:06:41;0.00;99.90
61092;DHT22;46975;51.898;11.444;2022-12-10T15:09:29;0.00;99.90
61092;DHT22;46975;51.898;11.444;2022-12-10T15:11:56;0.00;99.90
61092;DHT22;46975;51.898;11.444;2022-12-10T15:14:23;-0.10;99.90
61092;DHT22;46975;51.898;11.444;2022-12-10T15:16:50;-0.10;99.90
61092;DHT22;46975;51.898;11.444;2022-12-10T15:22:00;-0.20;99.90
61092;DHT22;46975;51.898;11.444;2022-12-10T15:24:39;-0.20;99.90
61092;DHT22;46975;51.898;11.444;2022-12-10T15:27:19;-0.20;99.90
61092;DHT22;46975;51.898;11.444;2022-12-10T15:29:46;-0.20;99.90
61092;DHT22;46975;51.898;11.444;2022-12-10T15:32:13;-0.20;99.90
61092;DHT22;46975;51.898;11.444;2022-12-10T15:34:44;-0.20;99.90
61092;DHT22;46975;51.898;11.444;2022-12-10T15:37:32;-0.20;99.90
61092;DHT22;46975;51.898;11.444;2022-12-10T15:40:00;-0.20;99.90
61092;DHT22;46975;51.898;11.444;2022-12-10T15:42:42;-0.20;99.90
61092;DHT22;46975;51.898;11.444;2022-12-10T15:45:26;-0.20;99.90
61092;DHT22;46975;51.898;11.444;2022-12-10T15:47:54;-0.20;99.90
61092;DHT22;46975;51.898;11.444;2022-12-10T15:50:22;-0.20;99.90
61092;DHT22;46975;51.898;11.444;2022-12-10T15:52:48;-0.30;99.90
61092;DHT22;46975;51.898;11.444;2022-12-10T15:55:14;-0.30;99.90
61092;DHT22;46975;51.898;11.444;2022-12-10T15:57:42;-0.30;99.90
61092;DHT22;46975;51.898;11.444;2022-12-10T16:00:26;-0.20;99.90
61092;DHT22;46975;51.898;11.444;2022-12-10T16:02:58;-0.30;99.90
61092;DHT22;46975;51.898;11.444;2022-12-10T16:05:33;-0.30;99.90
61092;DHT22;46975;51.898;11.444;2022-12-10T16:08:06;-0.30;99.90
61092;DHT22;46975;51.898;11.444;2022-12-10T16:10:32;-0.30;99.90
61092;DHT22;46975;51.898;11.444;2022-12-10T16:13:06;-0.30;99.90
61092;DHT22;46975;51.898;11.444;2022-12-10T16:15:43;-0.20;99.90
61092;DHT22;46975;51.898;11.444;2022-12-10T16:18:10;-0.20;99.90
61092;DHT22;46975;51.898;11.444;2022-12-10T16:20:38;-0.30;99.90
61092;DHT22;46975;51.898;11.444;2022-12-10T16:23:03;-0.20;99.90
61092;DHT22;46975;51.898;11.444;2022-12-10T16:25:32;-0.30;99.90
61092;DHT22;46975;51.898;11.444;2022-12-10T16:27:59;-0.30;99.90
61092;DHT22;46975;51.898;11.444;2022-12-10T16:30:33;-0.20;99.90
61092;DHT22;46975;51.898;11.444;2022-12-10T16:33:00;-0.30;99.90
61092;DHT22;46975;51.898;11.444;2022-12-10T16:35:25;-0.30;99.90
61092;DHT22;46975;51.898;11.444;2022-12-10T16:37:51;-0.20;99.90
61092;DHT22;46975;51.898;11.444;2022-12-10T16:40:24;-0.20;99.90
61092;DHT22;46975;51.898;11.444;2022-12-10T16:42:50;-0.20;99.90
61092;DHT22;46975;51.898;11.444;2022-12-10T16:45:23;-0.10;99.90
61092;DHT22;46975;51.898;11.444;2022-12-10T16:47:49;-0.10;99.90
61092;DHT22;46975;51.898;11.444;2022-12-10T16:50:16;-0.30;99.90
61092;DHT22;46975;51.898;11.444;2022-12-10T16:52:42;-0.40;99.90
61092;DHT22;46975;51.898;11.444;2022-12-10T16:55:17;-0.30;99.90
61092;DHT22;46975;51.898;11.444;2022-12-10T16:57:44;-0.30;99.90
61092;DHT22;46975;51.898;11.444;2022-12-10T17:00:15;-0.30;99.90
61092;DHT22;46975;51.898;11.444;2022-12-10T17:02:43;-0.30;99.90
61092;DHT22;46975;51.898;11.444;2022-12-10T17:05:16;-0.30;99.90
61092;DHT22;46975;51.898;11.444;2022-12-10T17:07:42;-0.20;99.90
61092;DHT22;46975;51.898;11.444;2022-12-10T17:10:10;-0.20;99.90
61092;DHT22;46975;51.898;11.444;2022-12-10T17:12:40;-0.20;99.90
61092;DHT22;46975;51.898;11.444;2022-12-10T17:15:21;-0.20;99.90
61092;DHT22;46975;51.898;11.444;2022-12-10T17:17:50;-0.20;99.90
61092;DHT22;46975;51.898;11.444;2022-12-10T17:20:20;-0.20;99.90
61092;DHT22;46975;51.898;11.444;2022-12-10T17:22:49;-0.20;99.90
61092;DHT22;46975;51.898;11.444;2022-12-10T17:25:21;-0.30;99.90
61092;DHT22;46975;51.898;11.444;2022-12-10T17:27:47;-0.30;99.90
61092;DHT22;46975;51.898;11.444;2022-12-10T17:30:14;-0.30;99.90
61092;DHT22;46975;51.898;11.444;2022-12-10T17:32:40;-0.30;99.90
61092;DHT22;46975;51.898;11.444;2022-12-10T17:35:08;-0.20;99.90
61092;DHT22;46975;51.898;11.444;2022-12-10T17:37:35;-0.30;99.90
61092;DHT22;46975;51.898;11.444;2022-12-10T17:40:05;-0.30;99.90
61092;DHT22;46975;51.898;11.444;2022-12-10T17:42:35;-0.20;99.90
61092;DHT22;46975;51.898;11.444;2022-12-10T17:45:01;-0.10;99.90
61092;DHT22;46975;51.898;11.444;2022-12-10T17:47:27;-0.10;99.90